sensor_id;sensor_type;location;lat;lon;timestamp;temperature;humidity
44823;DHT22;51097;51.984;5.650;2024-03-07T00:02:20;7.40;99.90
44823;DHT22;51097;51.984;5.650;2024-03-07T00:04:46;7.40;99.90
44823;DHT22;51097;51.984;5.650;2024-03-07T00:07:11;7.30;99.90
44823;DHT22;51097;51.984;5.650;2024-03-07T00:09:37;7.30;99.90
44823;DHT22;51097;51.984;5.650;2024-03-07T00:12:03;7.30;99.90
44823;DHT22;51097;51.984;5.650;2024-03-07T00:14:30;7.30;99.90
44823;DHT22;51097;51.984;5.650;2024-03-07T00:16:57;7.30;99.90
44823;DHT22;51097;51.984;5.650;2024-03-07T00:19:25;7.30;99.90
44823;DHT22;51097;51.984;5.650;2024-03-07T00:21:53;7.20;99.90
44823;DHT22;51097;51.984;5.650;2024-03-07T00:24:23;7.20;99.90
44823;DHT22;51097;51.984;5.650;2024-03-07T00:26:49;7.20;99.90
44823;DHT22;51097;51.984;5.650;2024-03-07T00:29:18;7.20;99.90
44823;DHT22;51097;51.984;5.650;2024-03-07T00:31:45;7.10;99.90
44823;DHT22;51097;51.984;5.650;2024-03-07T00:34:13;7.20;99.90
44823;DHT22;51097;51.984;5.650;2024-03-07T00:36:40;7.20;99.90
44823;DHT22;51097;51.984;5.650;2024-03-07T00:39:05;7.10;99.90
44823;DHT22;51097;51.984;5.650;2024-03-07T00:41:33;7.20;99.90
44823;DHT22;51097;51.984;5.650;2024-03-07T00:43:59;7.10;99.90
44823;DHT22;51097;51.984;5.650;2024-03-07T00:46:25;7.10;99.90
44823;DHT22;51097;51.984;5.650;2024-03-07T00:48:50;7.10;99.90
44823;DHT22;51097;51.984;5.650;2024-03-07T00:51:16;7.10;99.90
44823;DHT22;51097;51.984;5.650;2024-03-07T00:53:41;7.20;99.90
44823;DHT22;51097;51.984;5.650;2024-03-07T00:56:07;7.20;99.90
44823;DHT22;51097;51.984;5.650;2024-03-07T00:58:32;7.10;99.90
44823;DHT22;51097;51.984;5.650;2024-03-07T01:00:58;7.10;99.90
44823;DHT22;51097;51.984;5.650;2024-03-07T01:03:23;7.10;99.90
44823;DHT22;51097;51.984;5.650;2024-03-07T01:05:49;6.90;99.90
44823;DHT22;51097;51.984;5.650;2024-03-07T01:08:15;6.90;99.90
44823;DHT22;51097;51.984;5.650;2024-03-07T01:10:41;6.90;99.90
44823;DHT22;51097;51.984;5.650;2024-03-07T01:13:07;6.90;99.90
44823;DHT22;51097;51.984;5.650;2024-03-07T01:15:34;6.90;99.90
44823;DHT22;51097;51.984;5.650;2024-03-07T01:18:00;7.00;99.90
44823;DHT22;51097;51.984;5.650;2024-03-07T01:20:25;6.80;99.90
44823;DHT22;51097;51.984;5.650;2024-03-07T01:22:52;6.80;99.90
44823;DHT22;51097;51.984;5.650;2024-03-07T01:25:18;6.80;99.90
44823;DHT22;51097;51.984;5.650;2024-03-07T01:27:44;6.70;99.90
44823;DHT22;51097;51.984;5.650;2024-03-07T01:30:10;6.60;99.90
44823;DHT22;51097;51.984;5.650;2024-03-07T01:32:36;6.60;99.90
44823;DHT22;51097;51.984;5.650;2024-03-07T01:35:01;6.60;99.90
44823;DHT22;51097;51.984;5.650;2024-03-07T01:37:27;6.50;99.90
44823;DHT22;51097;51.984;5.650;2024-03-07T01:39:54;6.50;99.90
44823;DHT22;51097;51.984;5.650;2024-03-07T01:42:19;6.50;99.90
44823;DHT22;51097;51.984;5.650;2024-03-07T01:44:45;6.50;99.90
44823;DHT22;51097;51.984;5.650;2024-03-07T01:47:11;6.40;99.90
44823;DHT22;51097;51.984;5.650;2024-03-07T01:49:37;6.40;99.90
44823;DHT22;51097;51.984;5.650;2024-03-07T01:52:04;6.40;99.90
44823;DHT22;51097;51.984;5.650;2024-03-07T01:54:30;6.30;99.90
44823;DHT22;51097;51.984;5.650;2024-03-07T01:56:57;6.30;99.90
44823;DHT22;51097;51.984;5.650;2024-03-07T01:59:24;6.20;99.90
44823;DHT22;51097;51.984;5.650;2024-03-07T02:01:50;6.20;99.90
44823;DHT22;51097;51.984;5.650;2024-03-07T02:04:16;6.20;99.90
44823;DHT22;51097;51.984;5.650;2024-03-07T02:06:41;6.20;99.90
44823;DHT22;51097;51.984;5.650;2024-03-07T02:09:07;6.10;99.90
44823;DHT22;51097;51.984;5.650;2024-03-07T02:11:33;6.10;99.90
44823;DHT22;51097;51.984;5.650;2024-03-07T02:13:58;6.00;99.90
44823;DHT22;51097;51.984;5.650;2024-03-07T02:16:24;6.00;99.90
44823;DHT22;51097;51.984;5.650;2024-03-07T02:18:50;6.00;99.90
44823;DHT22;51097;51.984;5.650;2024-03-07T02:21:16;6.10;99.90
44823;DHT22;51097;51.984;5.650;2024-03-07T02:23:41;6.00;99.90
44823;DHT22;51097;51.984;5.650;2024-03-07T02:26:07;6.10;99.90
44823;DHT22;51097;51.984;5.650;2024-03-07T02:28:36;6.10;99.90
44823;DHT22;51097;51.984;5.650;2024-03-07T02:31:02;6.10;99.90
44823;DHT22;51097;51.984;5.650;2024-03-07T02:33:27;6.00;99.90
44823;DHT22;51097;51.984;5.650;2024-03-07T02:35:53;6.10;99.90
44823;DHT22;51097;51.984;5.650;2024-03-07T02:38:19;6.10;99.90
44823;DHT22;51097;51.984;5.650;2024-03-07T02:40:45;6.10;99.90
44823;DHT22;51097;51.984;5.650;2024-03-07T02:43:14;6.10;99.90
44823;DHT22;51097;51.984;5.650;2024-03-07T02:45:39;6.20;99.90
44823;DHT22;51097;51.984;5.650;2024-03-07T02:48:05;6.10;99.90
44823;DHT22;51097;51.984;5.650;2024-03-07T02:50:35;6.10;99.90
44823;DHT22;51097;51.984;5.650;2024-03-07T02:53:03;6.10;99.90
44823;DHT22;51097;51.984;5.650;2024-03-07T02:55:29;6.10;99.90
44823;DHT22;51097;51.984;5.650;2024-03-07T02:57:54;6.10;99.90
44823;DHT22;51097;51.984;5.650;2024-03-07T03:00:23;6.10;99.90
44823;DHT22;51097;51.984;5.650;2024-03-07T03:02:52;6.10;99.90
44823;DHT22;51097;51.984;5.650;2024-03-07T03:05:18;6.10;99.90
44823;DHT22;51097;51.984;5.650;2024-03-07T03:07:44;6.10;99.90
44823;DHT22;51097;51.984;5.650;2024-03-07T03:10:21;6.10;99.90
44823;DHT22;51097;51.984;5.650;2024-03-07T03:12:52;6.00;99.90
44823;DHT22;51097;51.984;5.650;2024-03-07T03:15:19;6.00;99.90
44823;DHT22;51097;51.984;5.650;2024-03-07T03:17:48;6.10;99.90
44823;DHT22;51097;51.984;5.650;2024-03-07T03:20:14;6.20;99.90
44823;DHT22;51097;51.984;5.650;2024-03-07T03:22:50;6.10;99.90
44823;DHT22;51097;51.984;5.650;2024-03-07T03:25:16;6.00;99.90
44823;DHT22;51097;51.984;5.650;2024-03-07T03:27:41;6.10;99.90
44823;DHT22;51097;51.984;5.650;2024-03-07T03:30:07;6.00;99.90
44823;DHT22;51097;51.984;5.650;2024-03-07T03:32:33;6.00;99.90
44823;DHT22;51097;51.984;5.650;2024-03-07T03:34:58;6.00;99.90
44823;DHT22;51097;51.984;5.650;2024-03-07T03:37:24;6.00;99.90
44823;DHT22;51097;51.984;5.650;2024-03-07T03:39:49;5.90;99.90
44823;DHT22;51097;51.984;5.650;2024-03-07T03:42:16;5.90;99.90
44823;DHT22;51097;51.984;5.650;2024-03-07T03:44:42;5.80;99.90
44823;DHT22;51097;51.984;5.650;2024-03-07T03:47:08;5.80;99.90
44823;DHT22;51097;51.984;5.650;2024-03-07T03:49:33;5.80;99.90
44823;DHT22;51097;51.984;5.650;2024-03-07T03:51:59;5.80;99.90
44823;DHT22;51097;51.984;5.650;2024-03-07T03:54:25;5.90;99.90
44823;DHT22;51097;51.984;5.650;2024-03-07T03:56:50;5.80;99.90
44823;DHT22;51097;51.984;5.650;2024-03-07T03:59:16;5.80;99.90
44823;DHT22;51097;51.984;5.650;2024-03-07T04:01:41;5.80;99.90
44823;DHT22;51097;51.984;5.650;2024-03-07T04:04:07;5.90;99.90
44823;DHT22;51097;51.984;5.650;2024-03-07T04:06:33;5.90;99.90
44823;DHT22;51097;51.984;5.650;2024-03-07T04:09:00;5.90;99.90
44823;DHT22;51097;51.984;5.650;2024-03-07T04:11:26;5.90;99.90
44823;DHT22;51097;51.984;5.650;2024-03-07T04:13:52;5.90;99.90
44823;DHT22;51097;51.984;5.650;2024-03-07T04:16:17;6.00;99.90
44823;DHT22;51097;51.984;5.650;2024-03-07T04:18:43;6.00;99.90
44823;DHT22;51097;51.984;5.650;2024-03-07T04:21:08;6.00;99.90
44823;DHT22;51097;51.984;5.650;2024-03-07T04:23:35;6.00;99.90
44823;DHT22;51097;51.984;5.650;2024-03-07T04:26:00;6.00;99.90
44823;DHT22;51097;51.984;5.650;2024-03-07T04:28:26;6.00;99.90
44823;DHT22;51097;51.984;5.650;2024-03-07T04:30:53;6.00;99.90
44823;DHT22;51097;51.984;5.650;2024-03-07T04:33:19;6.00;99.90
44823;DHT22;51097;51.984;5.650;2024-03-07T04:35:45;5.90;99.90
44823;DHT22;51097;51.984;5.650;2024-03-07T04:38:10;5.90;99.90
44823;DHT22;51097;51.984;5.650;2024-03-07T04:40:41;5.90;99.90
44823;DHT22;51097;51.984;5.650;2024-03-07T04:43:07;5.90;99.90
44823;DHT22;51097;51.984;5.650;2024-03-07T04:45:33;5.90;99.90
44823;DHT22;51097;51.984;5.650;2024-03-07T04:47:59;5.90;99.90
44823;DHT22;51097;51.984;5.650;2024-03-07T04:50:25;5.90;99.90
44823;DHT22;51097;51.984;5.650;2024-03-07T04:52:52;5.90;99.90
44823;DHT22;51097;51.984;5.650;2024-03-07T04:55:17;5.90;99.90
44823;DHT22;51097;51.984;5.650;2024-03-07T04:57:44;6.00;99.90
44823;DHT22;51097;51.984;5.650;2024-03-07T05:00:11;5.90;99.90
44823;DHT22;51097;51.984;5.650;2024-03-07T05:02:40;5.90;99.90
44823;DHT22;51097;51.984;5.650;2024-03-07T05:05:06;6.00;99.90
44823;DHT22;51097;51.984;5.650;2024-03-07T05:07:31;5.90;99.90
44823;DHT22;51097;51.984;5.650;2024-03-07T05:09:57;6.00;99.90
44823;DHT22;51097;51.984;5.650;2024-03-07T05:12:22;5.90;99.90
44823;DHT22;51097;51.984;5.650;2024-03-07T05:14:48;5.80;99.90
44823;DHT22;51097;51.984;5.650;2024-03-07T05:17:13;5.80;99.90
44823;DHT22;51097;51.984;5.650;2024-03-07T05:19:39;5.90;99.90
44823;DHT22;51097;51.984;5.650;2024-03-07T05:22:05;5.90;99.90
44823;DHT22;51097;51.984;5.650;2024-03-07T05:24:31;5.90;99.90
44823;DHT22;51097;51.984;5.650;2024-03-07T05:26:58;5.90;99.90
44823;DHT22;51097;51.984;5.650;2024-03-07T05:29:24;5.90;99.90
44823;DHT22;51097;51.984;5.650;2024-03-07T05:31:50;5.90;99.90
44823;DHT22;51097;51.984;5.650;2024-03-07T05:34:16;5.80;99.90
44823;DHT22;51097;51.984;5.650;2024-03-07T05:36:45;5.90;99.90
44823;DHT22;51097;51.984;5.650;2024-03-07T05:39:12;5.80;99.90
44823;DHT22;51097;51.984;5.650;2024-03-07T05:41:39;5.70;99.90
44823;DHT22;51097;51.984;5.650;2024-03-07T05:44:05;5.70;99.90
44823;DHT22;51097;51.984;5.650;2024-03-07T05:46:41;5.70;99.90
44823;DHT22;51097;51.984;5.650;2024-03-07T05:49:11;5.70;99.90
44823;DHT22;51097;51.984;5.650;2024-03-07T05:51:37;5.70;99.90
44823;DHT22;51097;51.984;5.650;2024-03-07T05:54:03;5.60;99.90
44823;DHT22;51097;51.984;5.650;2024-03-07T05:56:35;5.60;99.90
44823;DHT22;51097;51.984;5.650;2024-03-07T05:59:07;5.60;99.90
44823;DHT22;51097;51.984;5.650;2024-03-07T06:01:37;5.60;99.90
44823;DHT22;51097;51.984;5.650;2024-03-07T06:04:05;5.60;99.90
44823;DHT22;51097;51.984;5.650;2024-03-07T06:06:32;5.60;99.90
44823;DHT22;51097;51.984;5.650;2024-03-07T06:09:00;5.60;99.90
44823;DHT22;51097;51.984;5.650;2024-03-07T06:11:25;5.60;99.90
44823;DHT22;51097;51.984;5.650;2024-03-07T06:13:51;5.60;99.90
44823;DHT22;51097;51.984;5.650;2024-03-07T06:16:17;5.60;99.90
44823;DHT22;51097;51.984;5.650;2024-03-07T06:18:43;5.70;99.90
44823;DHT22;51097;51.984;5.650;2024-03-07T06:21:12;5.60;99.90
44823;DHT22;51097;51.984;5.650;2024-03-07T06:23:38;5.50;99.90
44823;DHT22;51097;51.984;5.650;2024-03-07T06:26:04;5.50;99.90
44823;DHT22;51097;51.984;5.650;2024-03-07T06:28:40;5.60;99.90
44823;DHT22;51097;51.984;5.650;2024-03-07T06:31:06;5.60;99.90
44823;DHT22;51097;51.984;5.650;2024-03-07T06:33:34;5.60;99.90
44823;DHT22;51097;51.984;5.650;2024-03-07T06:36:00;5.50;99.90
44823;DHT22;51097;51.984;5.650;2024-03-07T06:38:27;5.60;99.90
44823;DHT22;51097;51.984;5.650;2024-03-07T06:40:52;5.50;99.90
44823;DHT22;51097;51.984;5.650;2024-03-07T06:43:18;5.60;99.90
44823;DHT22;51097;51.984;5.650;2024-03-07T06:45:51;5.60;99.90
44823;DHT22;51097;51.984;5.650;2024-03-07T06:48:17;5.60;99.90
44823;DHT22;51097;51.984;5.650;2024-03-07T06:50:42;5.60;99.90
44823;DHT22;51097;51.984;5.650;2024-03-07T06:53:10;5.60;99.90
44823;DHT22;51097;51.984;5.650;2024-03-07T06:55:35;5.50;99.90
44823;DHT22;51097;51.984;5.650;2024-03-07T06:58:01;5.60;99.90
44823;DHT22;51097;51.984;5.650;2024-03-07T07:00:30;5.60;99.90
44823;DHT22;51097;51.984;5.650;2024-03-07T07:03:00;5.60;99.90
44823;DHT22;51097;51.984;5.650;2024-03-07T07:05:29;5.60;99.90
44823;DHT22;51097;51.984;5.650;2024-03-07T07:07:55;5.60;99.90
44823;DHT22;51097;51.984;5.650;2024-03-07T07:10:23;5.60;99.90
44823;DHT22;51097;51.984;5.650;2024-03-07T07:12:52;5.60;99.90
44823;DHT22;51097;51.984;5.650;2024-03-07T07:15:20;5.70;99.90
44823;DHT22;51097;51.984;5.650;2024-03-07T07:17:46;5.70;99.90
44823;DHT22;51097;51.984;5.650;2024-03-07T07:20:12;5.80;99.90
44823;DHT22;51097;51.984;5.650;2024-03-07T07:22:44;5.80;99.90
44823;DHT22;51097;51.984;5.650;2024-03-07T07:25:11;5.90;99.90
44823;DHT22;51097;51.984;5.650;2024-03-07T07:27:43;5.80;99.90
44823;DHT22;51097;51.984;5.650;2024-03-07T07:30:14;5.80;99.90
44823;DHT22;51097;51.984;5.650;2024-03-07T07:32:40;6.00;99.90
44823;DHT22;51097;51.984;5.650;2024-03-07T07:35:07;6.00;99.90
44823;DHT22;51097;51.984;5.650;2024-03-07T07:37:45;6.10;99.90
44823;DHT22;51097;51.984;5.650;2024-03-07T07:40:13;6.10;99.90
44823;DHT22;51097;51.984;5.650;2024-03-07T07:42:41;6.20;99.90
44823;DHT22;51097;51.984;5.650;2024-03-07T07:45:08;6.10;99.90
44823;DHT22;51097;51.984;5.650;2024-03-07T07:47:41;6.30;99.90
44823;DHT22;51097;51.984;5.650;2024-03-07T07:50:18;6.40;99.90
44823;DHT22;51097;51.984;5.650;2024-03-07T07:52:52;6.60;99.90
44823;DHT22;51097;51.984;5.650;2024-03-07T07:55:23;6.40;99.90
44823;DHT22;51097;51.984;5.650;2024-03-07T07:57:53;6.40;99.90
44823;DHT22;51097;51.984;5.650;2024-03-07T08:00:20;6.50;99.90
44823;DHT22;51097;51.984;5.650;2024-03-07T08:02:51;6.60;99.90
44823;DHT22;51097;51.984;5.650;2024-03-07T08:05:17;6.70;99.90
44823;DHT22;51097;51.984;5.650;2024-03-07T08:07:45;6.80;99.90
44823;DHT22;51097;51.984;5.650;2024-03-07T08:10:11;6.80;99.90
44823;DHT22;51097;51.984;5.650;2024-03-07T08:12:37;6.90;99.90
44823;DHT22;51097;51.984;5.650;2024-03-07T08:15:04;7.00;99.90
44823;DHT22;51097;51.984;5.650;2024-03-07T08:17:33;7.00;99.90
44823;DHT22;51097;51.984;5.650;2024-03-07T08:19:58;7.20;99.90
44823;DHT22;51097;51.984;5.650;2024-03-07T08:22:24;7.20;99.90
44823;DHT22;51097;51.984;5.650;2024-03-07T08:25:07;7.30;99.90
44823;DHT22;51097;51.984;5.650;2024-03-07T08:27:39;7.40;99.90
44823;DHT22;51097;51.984;5.650;2024-03-07T08:30:09;7.40;99.90
44823;DHT22;51097;51.984;5.650;2024-03-07T08:32:43;7.60;99.90
44823;DHT22;51097;51.984;5.650;2024-03-07T08:35:09;7.60;99.90
44823;DHT22;51097;51.984;5.650;2024-03-07T08:37:41;7.70;99.90
44823;DHT22;51097;51.984;5.650;2024-03-07T08:40:08;7.80;99.90
44823;DHT22;51097;51.984;5.650;2024-03-07T08:42:40;8.00;99.90
44823;DHT22;51097;51.984;5.650;2024-03-07T08:45:08;8.10;99.90
44823;DHT22;51097;51.984;5.650;2024-03-07T08:47:36;8.40;99.90
44823;DHT22;51097;51.984;5.650;2024-03-07T08:50:03;8.50;99.90
44823;DHT22;51097;51.984;5.650;2024-03-07T08:52:34;8.50;99.90
44823;DHT22;51097;51.984;5.650;2024-03-07T08:55:03;8.60;99.90
44823;DHT22;51097;51.984;5.650;2024-03-07T08:57:28;8.70;99.90
44823;DHT22;51097;51.984;5.650;2024-03-07T08:59:54;8.80;99.90
44823;DHT22;51097;51.984;5.650;2024-03-07T09:02:20;8.90;99.90
44823;DHT22;51097;51.984;5.650;2024-03-07T09:04:45;9.10;99.90
44823;DHT22;51097;51.984;5.650;2024-03-07T09:07:11;9.10;99.90
44823;DHT22;51097;51.984;5.650;2024-03-07T09:09:38;9.20;99.90
44823;DHT22;51097;51.984;5.650;2024-03-07T09:12:04;9.20;99.90
44823;DHT22;51097;51.984;5.650;2024-03-07T09:14:30;9.30;99.90
44823;DHT22;51097;51.984;5.650;2024-03-07T09:16:59;9.30;99.90
44823;DHT22;51097;51.984;5.650;2024-03-07T09:19:25;9.40;99.90
44823;DHT22;51097;51.984;5.650;2024-03-07T09:21:51;9.50;99.90
44823;DHT22;51097;51.984;5.650;2024-03-07T09:24:18;9.50;99.90
44823;DHT22;51097;51.984;5.650;2024-03-07T09:26:50;9.60;99.90
44823;DHT22;51097;51.984;5.650;2024-03-07T09:29:17;9.70;99.90
44823;DHT22;51097;51.984;5.650;2024-03-07T09:31:45;9.70;99.90
44823;DHT22;51097;51.984;5.650;2024-03-07T09:34:12;9.80;99.90
44823;DHT22;51097;51.984;5.650;2024-03-07T09:36:41;9.90;99.90
44823;DHT22;51097;51.984;5.650;2024-03-07T09:39:07;9.90;99.90
44823;DHT22;51097;51.984;5.650;2024-03-07T09:41:33;10.00;99.90
44823;DHT22;51097;51.984;5.650;2024-03-07T09:44:00;10.20;99.90
44823;DHT22;51097;51.984;5.650;2024-03-07T09:46:26;10.10;99.90
44823;DHT22;51097;51.984;5.650;2024-03-07T09:48:52;10.20;99.90
44823;DHT22;51097;51.984;5.650;2024-03-07T09:51:20;10.30;99.90
44823;DHT22;51097;51.984;5.650;2024-03-07T09:53:50;10.50;99.90
44823;DHT22;51097;51.984;5.650;2024-03-07T09:56:20;10.50;99.90
44823;DHT22;51097;51.984;5.650;2024-03-07T09:58:51;10.70;99.90
44823;DHT22;51097;51.984;5.650;2024-03-07T10:01:20;10.90;99.90
44823;DHT22;51097;51.984;5.650;2024-03-07T10:03:50;10.90;99.90
44823;DHT22;51097;51.984;5.650;2024-03-07T10:06:19;11.10;99.90
44823;DHT22;51097;51.984;5.650;2024-03-07T10:08:47;11.20;99.90
44823;DHT22;51097;51.984;5.650;2024-03-07T10:11:13;11.20;99.90
44823;DHT22;51097;51.984;5.650;2024-03-07T10:13:44;11.50;99.90
44823;DHT22;51097;51.984;5.650;2024-03-07T10:19:31;11.60;99.90
44823;DHT22;51097;51.984;5.650;2024-03-07T10:32:33;11.40;99.90
44823;DHT22;51097;51.984;5.650;2024-03-07T10:34:59;11.70;99.90
44823;DHT22;51097;51.984;5.650;2024-03-07T10:37:25;11.90;99.90
44823;DHT22;51097;51.984;5.650;2024-03-07T10:43:10;11.70;99.90
44823;DHT22;51097;51.984;5.650;2024-03-07T10:45:47;11.60;99.90
44823;DHT22;51097;51.984;5.650;2024-03-07T10:48:27;11.60;99.90
44823;DHT22;51097;51.984;5.650;2024-03-07T10:51:06;11.70;99.90
44823;DHT22;51097;51.984;5.650;2024-03-07T10:53:40;11.80;99.90
44823;DHT22;51097;51.984;5.650;2024-03-07T10:56:21;11.80;99.90
44823;DHT22;51097;51.984;5.650;2024-03-07T10:59:11;11.90;99.90
44823;DHT22;51097;51.984;5.650;2024-03-07T11:01:49;12.00;99.90
44823;DHT22;51097;51.984;5.650;2024-03-07T11:04:20;12.20;99.90
44823;DHT22;51097;51.984;5.650;2024-03-07T11:07:23;12.00;99.90
44823;DHT22;51097;51.984;5.650;2024-03-07T11:09:52;12.10;99.90
44823;DHT22;51097;51.984;5.650;2024-03-07T11:12:24;12.10;99.90
44823;DHT22;51097;51.984;5.650;2024-03-07T11:15:13;12.10;99.90
44823;DHT22;51097;51.984;5.650;2024-03-07T11:17:52;12.30;99.90
44823;DHT22;51097;51.984;5.650;2024-03-07T11:22:49;12.20;99.90
44823;DHT22;51097;51.984;5.650;2024-03-07T11:25:18;12.40;99.90
44823;DHT22;51097;51.984;5.650;2024-03-07T11:28:10;12.40;99.90
44823;DHT22;51097;51.984;5.650;2024-03-07T11:30:41;12.40;99.90
44823;DHT22;51097;51.984;5.650;2024-03-07T11:33:06;12.50;99.90
44823;DHT22;51097;51.984;5.650;2024-03-07T11:35:33;12.20;99.90
44823;DHT22;51097;51.984;5.650;2024-03-07T11:38:02;12.50;99.90
44823;DHT22;51097;51.984;5.650;2024-03-07T11:42:56;12.80;99.90
44823;DHT22;51097;51.984;5.650;2024-03-07T11:45:26;12.80;99.90
44823;DHT22;51097;51.984;5.650;2024-03-07T11:47:53;12.90;99.90
44823;DHT22;51097;51.984;5.650;2024-03-07T11:50:28;13.10;99.90
44823;DHT22;51097;51.984;5.650;2024-03-07T11:52:54;13.10;99.90
44823;DHT22;51097;51.984;5.650;2024-03-07T11:55:23;13.00;99.90
44823;DHT22;51097;51.984;5.650;2024-03-07T11:57:52;13.10;99.90
44823;DHT22;51097;51.984;5.650;2024-03-07T12:00:18;13.20;99.90
44823;DHT22;51097;51.984;5.650;2024-03-07T12:02:47;13.20;99.90
44823;DHT22;51097;51.984;5.650;2024-03-07T12:05:14;13.20;99.90
44823;DHT22;51097;51.984;5.650;2024-03-07T12:07:42;13.30;99.90
44823;DHT22;51097;51.984;5.650;2024-03-07T12:10:09;13.30;99.90
44823;DHT22;51097;51.984;5.650;2024-03-07T12:12:35;13.40;99.90
44823;DHT22;51097;51.984;5.650;2024-03-07T12:15:04;13.30;99.90
44823;DHT22;51097;51.984;5.650;2024-03-07T12:17:35;13.50;99.90
44823;DHT22;51097;51.984;5.650;2024-03-07T12:20:03;13.70;99.90
44823;DHT22;51097;51.984;5.650;2024-03-07T12:22:49;13.70;99.90
44823;DHT22;51097;51.984;5.650;2024-03-07T12:25:18;13.90;99.90
44823;DHT22;51097;51.984;5.650;2024-03-07T12:28:01;13.90;99.90
44823;DHT22;51097;51.984;5.650;2024-03-07T12:30:47;14.00;99.90
44823;DHT22;51097;51.984;5.650;2024-03-07T12:33:15;14.00;99.90
44823;DHT22;51097;51.984;5.650;2024-03-07T12:35:43;14.20;99.90
44823;DHT22;51097;51.984;5.650;2024-03-07T12:38:19;14.40;99.90
44823;DHT22;51097;51.984;5.650;2024-03-07T12:40:45;14.30;99.90
44823;DHT22;51097;51.984;5.650;2024-03-07T12:43:18;14.70;99.90
44823;DHT22;51097;51.984;5.650;2024-03-07T12:45:53;14.60;99.90
44823;DHT22;51097;51.984;5.650;2024-03-07T12:48:20;14.80;99.90
44823;DHT22;51097;51.984;5.650;2024-03-07T12:50:50;14.50;99.90
44823;DHT22;51097;51.984;5.650;2024-03-07T12:53:24;14.70;99.90
44823;DHT22;51097;51.984;5.650;2024-03-07T12:55:57;14.60;99.90
44823;DHT22;51097;51.984;5.650;2024-03-07T12:58:26;14.60;99.90
44823;DHT22;51097;51.984;5.650;2024-03-07T13:01:19;14.50;99.90
44823;DHT22;51097;51.984;5.650;2024-03-07T13:03:46;14.50;99.90
44823;DHT22;51097;51.984;5.650;2024-03-07T13:06:13;14.60;99.90
44823;DHT22;51097;51.984;5.650;2024-03-07T13:08:44;14.70;99.90
44823;DHT22;51097;51.984;5.650;2024-03-07T13:11:12;14.70;99.90
44823;DHT22;51097;51.984;5.650;2024-03-07T13:13:38;14.80;99.90
44823;DHT22;51097;51.984;5.650;2024-03-07T13:16:06;14.80;99.90
44823;DHT22;51097;51.984;5.650;2024-03-07T13:18:34;14.60;99.90
44823;DHT22;51097;51.984;5.650;2024-03-07T13:20:59;14.40;99.90
44823;DHT22;51097;51.984;5.650;2024-03-07T13:23:29;14.40;99.90
44823;DHT22;51097;51.984;5.650;2024-03-07T13:25:55;14.40;99.90
44823;DHT22;51097;51.984;5.650;2024-03-07T13:28:21;14.50;99.90
44823;DHT22;51097;51.984;5.650;2024-03-07T13:30:50;14.50;99.90
44823;DHT22;51097;51.984;5.650;2024-03-07T13:33:16;14.50;99.90
44823;DHT22;51097;51.984;5.650;2024-03-07T13:35:41;14.50;99.90
44823;DHT22;51097;51.984;5.650;2024-03-07T13:38:07;14.60;99.90
44823;DHT22;51097;51.984;5.650;2024-03-07T13:40:34;14.50;99.90
44823;DHT22;51097;51.984;5.650;2024-03-07T13:43:04;14.60;99.90
44823;DHT22;51097;51.984;5.650;2024-03-07T13:45:32;14.80;99.90
44823;DHT22;51097;51.984;5.650;2024-03-07T13:48:02;14.90;99.90
44823;DHT22;51097;51.984;5.650;2024-03-07T13:50:31;14.90;99.90
44823;DHT22;51097;51.984;5.650;2024-03-07T13:52:57;14.90;99.90
44823;DHT22;51097;51.984;5.650;2024-03-07T13:55:46;14.80;99.90
44823;DHT22;51097;51.984;5.650;2024-03-07T14:04:11;14.40;99.90
44823;DHT22;51097;51.984;5.650;2024-03-07T14:09:48;14.40;99.90
44823;DHT22;51097;51.984;5.650;2024-03-07T14:15:56;13.80;99.90
44823;DHT22;51097;51.984;5.650;2024-03-07T14:27:30;13.20;99.90
44823;DHT22;51097;51.984;5.650;2024-03-07T14:30:21;13.20;99.90
44823;DHT22;51097;51.984;5.650;2024-03-07T14:32:54;13.00;99.90
44823;DHT22;51097;51.984;5.650;2024-03-07T14:35:29;12.80;99.90
44823;DHT22;51097;51.984;5.650;2024-03-07T14:38:23;12.80;99.90
44823;DHT22;51097;51.984;5.650;2024-03-07T14:40:51;12.90;99.90
44823;DHT22;51097;51.984;5.650;2024-03-07T14:43:18;12.80;99.90
44823;DHT22;51097;51.984;5.650;2024-03-07T14:45:45;12.60;99.90
44823;DHT22;51097;51.984;5.650;2024-03-07T14:48:13;12.60;99.90
44823;DHT22;51097;51.984;5.650;2024-03-07T14:50:43;12.70;99.90
44823;DHT22;51097;51.984;5.650;2024-03-07T14:53:12;12.70;99.90
44823;DHT22;51097;51.984;5.650;2024-03-07T14:55:39;12.50;99.90
44823;DHT22;51097;51.984;5.650;2024-03-07T14:58:05;12.60;99.90
44823;DHT22;51097;51.984;5.650;2024-03-07T15:00:39;12.60;99.90
44823;DHT22;51097;51.984;5.650;2024-03-07T15:03:13;12.80;99.90
44823;DHT22;51097;51.984;5.650;2024-03-07T15:05:43;12.90;99.90
44823;DHT22;51097;51.984;5.650;2024-03-07T15:08:11;12.80;99.90
44823;DHT22;51097;51.984;5.650;2024-03-07T15:10:45;12.90;99.90
44823;DHT22;51097;51.984;5.650;2024-03-07T15:13:13;12.90;99.90
44823;DHT22;51097;51.984;5.650;2024-03-07T15:15:39;12.80;99.90
44823;DHT22;51097;51.984;5.650;2024-03-07T15:18:05;12.90;99.90
44823;DHT22;51097;51.984;5.650;2024-03-07T15:20:31;12.90;99.90
44823;DHT22;51097;51.984;5.650;2024-03-07T15:22:59;13.00;99.90
44823;DHT22;51097;51.984;5.650;2024-03-07T15:25:29;13.00;99.90
44823;DHT22;51097;51.984;5.650;2024-03-07T15:27:56;12.90;99.90
44823;DHT22;51097;51.984;5.650;2024-03-07T15:30:23;12.80;99.90
44823;DHT22;51097;51.984;5.650;2024-03-07T15:32:58;12.90;99.90
44823;DHT22;51097;51.984;5.650;2024-03-07T15:35:27;12.90;99.90
44823;DHT22;51097;51.984;5.650;2024-03-07T15:37:53;12.90;99.90
44823;DHT22;51097;51.984;5.650;2024-03-07T15:40:22;12.90;99.90
44823;DHT22;51097;51.984;5.650;2024-03-07T15:42:50;12.70;99.90
44823;DHT22;51097;51.984;5.650;2024-03-07T15:45:23;12.80;99.90
44823;DHT22;51097;51.984;5.650;2024-03-07T15:47:51;12.90;99.90
44823;DHT22;51097;51.984;5.650;2024-03-07T15:50:18;12.90;99.90
44823;DHT22;51097;51.984;5.650;2024-03-07T15:52:48;13.00;99.90
44823;DHT22;51097;51.984;5.650;2024-03-07T15:55:14;13.10;99.90
44823;DHT22;51097;51.984;5.650;2024-03-07T16:00:09;13.20;99.90
44823;DHT22;51097;51.984;5.650;2024-03-07T16:02:55;13.10;99.90
44823;DHT22;51097;51.984;5.650;2024-03-07T16:05:21;12.90;99.90
44823;DHT22;51097;51.984;5.650;2024-03-07T16:07:51;12.80;99.90
44823;DHT22;51097;51.984;5.650;2024-03-07T16:10:19;13.00;99.90
44823;DHT22;51097;51.984;5.650;2024-03-07T16:12:45;12.90;99.90
44823;DHT22;51097;51.984;5.650;2024-03-07T16:15:11;12.90;99.90
44823;DHT22;51097;51.984;5.650;2024-03-07T16:17:37;12.60;99.90
44823;DHT22;51097;51.984;5.650;2024-03-07T16:20:04;12.80;99.90
44823;DHT22;51097;51.984;5.650;2024-03-07T16:22:41;12.80;99.90
44823;DHT22;51097;51.984;5.650;2024-03-07T16:25:11;12.80;99.90
44823;DHT22;51097;51.984;5.650;2024-03-07T16:27:40;12.70;99.90
44823;DHT22;51097;51.984;5.650;2024-03-07T16:30:14;12.70;99.90
44823;DHT22;51097;51.984;5.650;2024-03-07T16:32:41;12.60;99.90
44823;DHT22;51097;51.984;5.650;2024-03-07T16:35:07;12.30;99.90